sensor_id;sensor_type;location;lat;lon;timestamp;pressure;altitude;pressure_sealevel;temperature;humidity
50380;BME280;37474;59.468;18.040;2024-01-27T00:01:36;100617.09;;;-0.44;100.00
50380;BME280;37474;59.468;18.040;2024-01-27T00:04:04;100626.47;;;-0.49;100.00
50380;BME280;37474;59.468;18.040;2024-01-27T00:06:32;100618.81;;;-0.51;100.00
50380;BME280;37474;59.468;18.040;2024-01-27T00:09:02;100644.25;;;-0.46;100.00
50380;BME280;37474;59.468;18.040;2024-01-27T00:11:32;100643.38;;;-0.42;100.00
50380;BME280;37474;59.468;18.040;2024-01-27T00:14:00;100642.53;;;-0.43;100.00
50380;BME280;37474;59.468;18.040;2024-01-27T00:16:28;100648.50;;;-0.47;100.00
50380;BME280;37474;59.468;18.040;2024-01-27T00:18:57;100656.19;;;-0.50;100.00
50380;BME280;37474;59.468;18.040;2024-01-27T00:21:25;100662.06;;;-0.45;100.00
50380;BME280;37474;59.468;18.040;2024-01-27T00:23:53;100654.41;;;-0.45;100.00
50380;BME280;37474;59.468;18.040;2024-01-27T00:26:23;100667.91;;;-0.34;100.00
50380;BME280;37474;59.468;18.040;2024-01-27T00:28:54;100665.47;;;-0.43;100.00
50380;BME280;37474;59.468;18.040;2024-01-27T00:31:22;100671.44;;;-0.48;100.00
50380;BME280;37474;59.468;18.040;2024-01-27T00:33:50;100675.78;;;-0.60;100.00
50380;BME280;37474;59.468;18.040;2024-01-27T00:36:18;100679.09;;;-0.48;100.00
50380;BME280;37474;59.468;18.040;2024-01-27T00:38:47;100690.97;;;-0.49;100.00
50380;BME280;37474;59.468;18.040;2024-01-27T00:41:18;100688.41;;;-0.47;100.00
50380;BME280;37474;59.468;18.040;2024-01-27T00:43:47;100689.31;;;-0.53;100.00
50380;BME280;37474;59.468;18.040;2024-01-27T00:46:15;100696.03;;;-0.46;100.00
50380;BME280;37474;59.468;18.040;2024-01-27T00:48:43;100705.41;;;-0.49;100.00
50380;BME280;37474;59.468;18.040;2024-01-27T00:51:14;100706.25;;;-0.52;100.00
50380;BME280;37474;59.468;18.040;2024-01-27T00:53:42;100707.16;;;-0.59;100.00
50380;BME280;37474;59.468;18.040;2024-01-27T00:56:10;100712.31;;;-0.68;100.00
50380;BME280;37474;59.468;18.040;2024-01-27T00:58:38;100724.94;;;-0.53;100.00
50380;BME280;37474;59.468;18.040;2024-01-27T01:01:08;100745.34;;;-0.58;100.00
50380;BME280;37474;59.468;18.040;2024-01-27T01:03:38;100743.69;;;-0.68;100.00
50380;BME280;37474;59.468;18.040;2024-01-27T01:06:07;100728.44;;;-0.66;100.00
50380;BME280;37474;59.468;18.040;2024-01-27T01:08:35;100747.03;;;-0.55;100.00
50380;BME280;37474;59.468;18.040;2024-01-27T01:11:03;100754.66;;;-0.52;100.00
50380;BME280;37474;59.468;18.040;2024-01-27T01:13:31;100756.38;;;-0.57;100.00
50380;BME280;37474;59.468;18.040;2024-01-27T01:15:59;100764.81;;;-0.47;100.00
50380;BME280;37474;59.468;18.040;2024-01-27T01:18:29;100777.53;;;-0.46;100.00
50380;BME280;37474;59.468;18.040;2024-01-27T01:20:57;100786.00;;;-0.38;100.00
50380;BME280;37474;59.468;18.040;2024-01-27T01:23:25;100785.91;;;-0.29;100.00
50380;BME280;37474;59.468;18.040;2024-01-27T01:25:53;100796.16;;;-0.35;100.00
50380;BME280;37474;59.468;18.040;2024-01-27T01:28:21;100801.25;;;-0.35;100.00
50380;BME280;37474;59.468;18.040;2024-01-27T01:30:49;100784.38;;;-0.57;100.00
50380;BME280;37474;59.468;18.040;2024-01-27T01:33:17;100808.97;;;-0.50;100.00
50380;BME280;37474;59.468;18.040;2024-01-27T01:35:47;100808.13;;;-0.54;100.00
50380;BME280;37474;59.468;18.040;2024-01-27T01:38:14;100816.59;;;-0.48;100.00
50380;BME280;37474;59.468;18.040;2024-01-27T01:40:42;100829.31;;;-0.47;100.00
50380;BME280;37474;59.468;18.040;2024-01-27T01:43:10;100832.69;;;-0.40;100.00
50380;BME280;37474;59.468;18.040;2024-01-27T01:45:39;100826.75;;;-0.41;100.00
50380;BME280;37474;59.468;18.040;2024-01-27T01:48:07;100834.41;;;-0.42;100.00
50380;BME280;37474;59.468;18.040;2024-01-27T01:50:36;100842.88;;;-0.42;100.00
50380;BME280;37474;59.468;18.040;2024-01-27T01:53:06;100846.31;;;-0.52;100.00
50380;BME280;37474;59.468;18.040;2024-01-27T01:55:34;100845.53;;;-0.63;100.00
50380;BME280;37474;59.468;18.040;2024-01-27T01:58:02;100854.81;;;-0.48;100.00
50380;BME280;37474;59.468;18.040;2024-01-27T02:00:31;100858.19;;;-0.46;100.00
50380;BME280;37474;59.468;18.040;2024-01-27T02:02:59;100868.44;;;-0.60;100.00
50380;BME280;37474;59.468;18.040;2024-01-27T02:05:27;100873.50;;;-0.54;100.00
50380;BME280;37474;59.468;18.040;2024-01-27T02:07:56;100880.25;;;-0.45;100.00
50380;BME280;37474;59.468;18.040;2024-01-27T02:10:28;100885.34;;;-0.47;100.00
50380;BME280;37474;59.468;18.040;2024-01-27T02:13:03;100887.13;;;-0.66;100.00
50380;BME280;37474;59.468;18.040;2024-01-27T02:15:32;100900.69;;;-0.62;100.00
50380;BME280;37474;59.468;18.040;2024-01-27T02:18:00;100907.44;;;-0.52;100.00
50380;BME280;37474;59.468;18.040;2024-01-27T02:20:27;100912.53;;;-0.49;100.00
50380;BME280;37474;59.468;18.040;2024-01-27T02:22:55;100917.63;;;-0.52;100.00
50380;BME280;37474;59.468;18.040;2024-01-27T02:25:25;100930.34;;;-0.43;100.00
50380;BME280;37474;59.468;18.040;2024-01-27T02:27:52;100949.03;;;-0.53;100.00
50380;BME280;37474;59.468;18.040;2024-01-27T02:30:21;100941.41;;;-0.51;100.00
50380;BME280;37474;59.468;18.040;2024-01-27T02:32:49;100949.03;;;-0.47;100.00
50380;BME280;37474;59.468;18.040;2024-01-27T02:35:17;100949.91;;;-0.54;100.00
50380;BME280;37474;59.468;18.040;2024-01-27T02:37:47;100949.03;;;-0.47;100.00
50380;BME280;37474;59.468;18.040;2024-01-27T02:40:16;100952.44;;;-0.43;100.00
50380;BME280;37474;59.468;18.040;2024-01-27T02:42:45;100960.91;;;-0.41;100.00
50380;BME280;37474;59.468;18.040;2024-01-27T02:45:13;100968.56;;;-0.44;100.00
50380;BME280;37474;59.468;18.040;2024-01-27T02:47:41;100970.25;;;-0.45;100.00
50380;BME280;37474;59.468;18.040;2024-01-27T02:50:10;100977.03;;;-0.42;100.00
50380;BME280;37474;59.468;18.040;2024-01-27T02:52:38;100980.44;;;-0.45;100.00
50380;BME280;37474;59.468;18.040;2024-01-27T02:55:07;100980.44;;;-0.46;100.00
50380;BME280;37474;59.468;18.040;2024-01-27T02:57:35;100988.94;;;-0.47;100.00
50380;BME280;37474;59.468;18.040;2024-01-27T03:00:06;101007.59;;;-0.42;100.00
50380;BME280;37474;59.468;18.040;2024-01-27T03:02:34;101009.28;;;-0.46;100.00
50380;BME280;37474;59.468;18.040;2024-01-27T03:05:02;101010.13;;;-0.41;100.00
50380;BME280;37474;59.468;18.040;2024-01-27T03:07:31;101014.38;;;-0.40;100.00
50380;BME280;37474;59.468;18.040;2024-01-27T03:10:00;101007.63;;;-0.50;100.00
50380;BME280;37474;59.468;18.040;2024-01-27T03:12:28;101027.13;;;-0.40;100.00
50380;BME280;37474;59.468;18.040;2024-01-27T03:14:56;101029.66;;;-0.41;100.00
50380;BME280;37474;59.468;18.040;2024-01-27T03:17:25;101028.84;;;-0.43;100.00
50380;BME280;37474;59.468;18.040;2024-01-27T03:19:53;101047.50;;;-0.40;100.00
50380;BME280;37474;59.468;18.040;2024-01-27T03:22:22;101046.66;;;-0.45;100.00
50380;BME280;37474;59.468;18.040;2024-01-27T03:24:49;101058.53;;;-0.47;100.00
50380;BME280;37474;59.468;18.040;2024-01-27T03:27:21;101069.56;;;-0.46;100.00
50380;BME280;37474;59.468;18.040;2024-01-27T03:29:49;101076.38;;;-0.53;100.00
50380;BME280;37474;59.468;18.040;2024-01-27T03:32:17;101080.63;;;-0.52;100.00
50380;BME280;37474;59.468;18.040;2024-01-27T03:34:46;101101.00;;;-0.54;100.00
50380;BME280;37474;59.468;18.040;2024-01-27T03:37:14;101109.50;;;-0.53;100.00
50380;BME280;37474;59.468;18.040;2024-01-27T03:39:42;101131.56;;;-0.52;100.00
50380;BME280;37474;59.468;18.040;2024-01-27T03:42:12;101123.06;;;-0.60;100.00
50380;BME280;37474;59.468;18.040;2024-01-27T03:44:40;101129.00;;;-0.58;100.00
50380;BME280;37474;59.468;18.040;2024-01-27T03:47:08;101127.31;;;-0.53;100.00
50380;BME280;37474;59.468;18.040;2024-01-27T03:49:38;101137.50;;;-0.61;100.00
50380;BME280;37474;59.468;18.040;2024-01-27T03:52:08;101146.81;;;-0.64;100.00
50380;BME280;37474;59.468;18.040;2024-01-27T03:54:37;101149.38;;;-0.69;100.00
50380;BME280;37474;59.468;18.040;2024-01-27T03:57:05;101169.72;;;-0.67;100.00
50380;BME280;37474;59.468;18.040;2024-01-27T03:59:33;101168.88;;;-0.72;100.00
50380;BME280;37474;59.468;18.040;2024-01-27T04:02:01;101181.63;;;-0.71;100.00
50380;BME280;37474;59.468;18.040;2024-01-27T04:04:29;101182.44;;;-0.78;100.00
50380;BME280;37474;59.468;18.040;2024-01-27T04:06:57;101190.94;;;-0.77;100.00
50380;BME280;37474;59.468;18.040;2024-01-27T04:09:27;101188.38;;;-0.79;100.00
50380;BME280;37474;59.468;18.040;2024-01-27T04:11:55;101202.78;;;-0.84;100.00
50380;BME280;37474;59.468;18.040;2024-01-27T04:14:23;101216.38;;;-0.88;100.00
50380;BME280;37474;59.468;18.040;2024-01-27T04:16:51;101217.22;;;-0.88;100.00
50380;BME280;37474;59.468;18.040;2024-01-27T04:19:19;101227.38;;;-0.91;100.00
50380;BME280;37474;59.468;18.040;2024-01-27T04:21:48;101222.31;;;-0.88;100.00
50380;BME280;37474;59.468;18.040;2024-01-27T04:24:16;101217.19;;;-0.89;100.00
50380;BME280;37474;59.468;18.040;2024-01-27T04:26:48;101226.53;;;-0.91;100.00
50380;BME280;37474;59.468;18.040;2024-01-27T04:29:16;101235.00;;;-0.98;100.00
50380;BME280;37474;59.468;18.040;2024-01-27T04:31:44;101233.25;;;-1.10;100.00
50380;BME280;37474;59.468;18.040;2024-01-27T04:34:12;101245.09;;;-1.12;100.00
50380;BME280;37474;59.468;18.040;2024-01-27T04:36:40;101248.50;;;-1.16;100.00
50380;BME280;37474;59.468;18.040;2024-01-27T04:39:08;101253.59;;;-1.16;100.00
50380;BME280;37474;59.468;18.040;2024-01-27T04:41:41;101262.91;;;-1.15;100.00
50380;BME280;37474;59.468;18.040;2024-01-27T04:44:11;101259.50;;;-1.20;100.00
50380;BME280;37474;59.468;18.040;2024-01-27T04:46:39;101254.34;;;-1.33;100.00
50380;BME280;37474;59.468;18.040;2024-01-27T04:49:07;101264.47;;;-1.37;100.00
50380;BME280;37474;59.468;18.040;2024-01-27T04:51:35;101257.66;;;-1.44;100.00
50380;BME280;37474;59.468;18.040;2024-01-27T04:54:03;101283.06;;;-1.46;100.00
50380;BME280;37474;59.468;18.040;2024-01-27T04:56:31;101297.44;;;-1.51;100.00
50380;BME280;37474;59.468;18.040;2024-01-27T04:58:59;101288.16;;;-1.49;100.00
50380;BME280;37474;59.468;18.040;2024-01-27T05:01:28;101302.56;;;-1.46;100.00
50380;BME280;37474;59.468;18.040;2024-01-27T05:03:57;101306.75;;;-1.51;100.00
50380;BME280;37474;59.468;18.040;2024-01-27T05:06:25;101307.59;;;-1.51;100.00
50380;BME280;37474;59.468;18.040;2024-01-27T05:08:53;101316.88;;;-1.57;100.00
50380;BME280;37474;59.468;18.040;2024-01-27T05:11:25;101307.56;;;-1.60;100.00
50380;BME280;37474;59.468;18.040;2024-01-27T05:13:54;101316.84;;;-1.62;100.00
50380;BME280;37474;59.468;18.040;2024-01-27T05:16:22;101324.47;;;-1.65;100.00
50380;BME280;37474;59.468;18.040;2024-01-27T05:18:51;101319.34;;;-1.68;100.00
50380;BME280;37474;59.468;18.040;2024-01-27T05:21:20;101323.59;;;-1.69;100.00
50380;BME280;37474;59.468;18.040;2024-01-27T05:23:48;101326.97;;;-1.67;100.00
50380;BME280;37474;59.468;18.040;2024-01-27T05:26:16;101327.72;;;-1.81;100.00
50380;BME280;37474;59.468;18.040;2024-01-27T05:28:45;101340.44;;;-1.80;100.00
50380;BME280;37474;59.468;18.040;2024-01-27T05:31:13;101349.69;;;-1.87;100.00
50380;BME280;37474;59.468;18.040;2024-01-27T05:33:42;101360.75;;;-1.80;100.00
50380;BME280;37474;59.468;18.040;2024-01-27T05:36:15;101357.16;;;-2.03;100.00
50380;BME280;37474;59.468;18.040;2024-01-27T05:38:43;101370.03;;;-1.87;100.00
50380;BME280;37474;59.468;18.040;2024-01-27T05:41:11;101371.63;;;-1.96;100.00
50380;BME280;37474;59.468;18.040;2024-01-27T05:43:39;101393.63;;;-2.00;100.00
50380;BME280;37474;59.468;18.040;2024-01-27T05:46:08;101389.41;;;-1.96;100.00
50380;BME280;37474;59.468;18.040;2024-01-27T05:48:36;101391.91;;;-2.01;100.00
50380;BME280;37474;59.468;18.040;2024-01-27T05:51:04;101396.19;;;-1.95;100.00
50380;BME280;37474;59.468;18.040;2024-01-27T05:53:35;101398.72;;;-1.98;100.00
50380;BME280;37474;59.468;18.040;2024-01-27T05:56:03;101391.84;;;-2.07;100.00
50380;BME280;37474;59.468;18.040;2024-01-27T05:58:31;101400.28;;;-2.09;100.00
50380;BME280;37474;59.468;18.040;2024-01-27T06:00:59;101411.22;;;-2.15;100.00
50380;BME280;37474;59.468;18.040;2024-01-27T06:03:27;101423.03;;;-2.17;100.00
50380;BME280;37474;59.468;18.040;2024-01-27T06:05:55;101429.72;;;-2.25;100.00
50380;BME280;37474;59.468;18.040;2024-01-27T06:08:24;101418.66;;;-2.30;100.00
50380;BME280;37474;59.468;18.040;2024-01-27T06:10:53;101420.47;;;-2.22;100.00
50380;BME280;37474;59.468;18.040;2024-01-27T06:13:21;101427.00;;;-2.39;100.00
50380;BME280;37474;59.468;18.040;2024-01-27T06:15:49;101420.97;;;-2.49;100.00
50380;BME280;37474;59.468;18.040;2024-01-27T06:18:17;101428.59;;;-2.47;100.00
50380;BME280;37474;59.468;18.040;2024-01-27T06:20:46;101437.06;;;-2.48;100.00
50380;BME280;37474;59.468;18.040;2024-01-27T06:23:14;101430.00;;;-2.68;100.00
50380;BME280;37474;59.468;18.040;2024-01-27T06:25:42;101424.03;;;-2.73;100.00
50380;BME280;37474;59.468;18.040;2024-01-27T06:28:12;101433.31;;;-2.73;100.00
50380;BME280;37474;59.468;18.040;2024-01-27T06:30:40;101433.91;;;-2.93;100.00
50380;BME280;37474;59.468;18.040;2024-01-27T06:33:08;101435.69;;;-2.87;100.00
50380;BME280;37474;59.468;18.040;2024-01-27T06:35:37;101440.41;;;-3.10;100.00
50380;BME280;37474;59.468;18.040;2024-01-27T06:38:05;101458.25;;;-3.04;100.00
50380;BME280;37474;59.468;18.040;2024-01-27T06:40:33;101457.25;;;-3.12;100.00
50380;BME280;37474;59.468;18.040;2024-01-27T06:43:01;101457.25;;;-3.12;100.00
50380;BME280;37474;59.468;18.040;2024-01-27T06:45:31;101473.22;;;-3.19;100.00
50380;BME280;37474;59.468;18.040;2024-01-27T06:48:00;101476.28;;;-3.37;100.00
50380;BME280;37474;59.468;18.040;2024-01-27T06:50:28;101464.56;;;-3.32;100.00
50380;BME280;37474;59.468;18.040;2024-01-27T06:52:59;101467.88;;;-3.34;100.00
50380;BME280;37474;59.468;18.040;2024-01-27T06:55:27;101486.38;;;-3.40;100.00
50380;BME280;37474;59.468;18.040;2024-01-27T06:57:55;101483.72;;;-3.46;100.00
50380;BME280;37474;59.468;18.040;2024-01-27T07:00:23;101491.25;;;-3.51;100.00
50380;BME280;37474;59.468;18.040;2024-01-27T07:02:53;101496.28;;;-3.52;100.00
50380;BME280;37474;59.468;18.040;2024-01-27T07:05:22;101491.03;;;-3.63;100.00
50380;BME280;37474;59.468;18.040;2024-01-27T07:07:50;101504.22;;;-3.79;100.00
50380;BME280;37474;59.468;18.040;2024-01-27T07:10:18;101518.66;;;-3.31;100.00
50380;BME280;37474;59.468;18.040;2024-01-27T07:12:47;101509.06;;;-3.46;100.00
50380;BME280;37474;59.468;18.040;2024-01-27T07:15:15;101512.97;;;-3.63;100.00
50380;BME280;37474;59.468;18.040;2024-01-27T07:17:43;101512.84;;;-3.71;100.00
50380;BME280;37474;59.468;18.040;2024-01-27T07:20:15;101524.88;;;-3.61;100.00
50380;BME280;37474;59.468;18.040;2024-01-27T07:22:47;101539.03;;;-3.70;100.00
50380;BME280;37474;59.468;18.040;2024-01-27T07:25:15;101545.22;;;-3.56;100.00
50380;BME280;37474;59.468;18.040;2024-01-27T07:27:43;101546.00;;;-3.60;100.00
50380;BME280;37474;59.468;18.040;2024-01-27T07:30:14;101543.53;;;-3.56;100.00
50380;BME280;37474;59.468;18.040;2024-01-27T07:32:42;101545.31;;;-3.52;100.00
50380;BME280;37474;59.468;18.040;2024-01-27T07:35:11;101542.63;;;-3.59;100.00
50380;BME280;37474;59.468;18.040;2024-01-27T07:37:40;101554.34;;;-3.64;100.00
50380;BME280;37474;59.468;18.040;2024-01-27T07:40:10;101569.94;;;-3.45;100.00
50380;BME280;37474;59.468;18.040;2024-01-27T07:42:38;101569.03;;;-3.50;100.00
50380;BME280;37474;59.468;18.040;2024-01-27T07:45:09;101571.09;;;-3.29;100.00
50380;BME280;37474;59.468;18.040;2024-01-27T07:47:37;101599.91;;;-3.25;100.00
50380;BME280;37474;59.468;18.040;2024-01-27T07:50:06;101594.75;;;-3.28;100.00
50380;BME280;37474;59.468;18.040;2024-01-27T07:52:36;101603.28;;;-3.26;100.00
50380;BME280;37474;59.468;18.040;2024-01-27T07:55:06;101597.56;;;-3.14;100.00
50380;BME280;37474;59.468;18.040;2024-01-27T07:57:34;101606.00;;;-3.15;100.00
50380;BME280;37474;59.468;18.040;2024-01-27T08:00:02;101615.44;;;-3.08;100.00
50380;BME280;37474;59.468;18.040;2024-01-27T08:02:33;101620.81;;;-2.92;100.00
50380;BME280;37474;59.468;18.040;2024-01-27T08:05:02;101619.84;;;-2.98;100.00
50380;BME280;37474;59.468;18.040;2024-01-27T08:07:31;101636.97;;;-2.86;100.00
50380;BME280;37474;59.468;18.040;2024-01-27T08:09:59;101630.97;;;-2.92;100.00
50380;BME280;37474;59.468;18.040;2024-01-27T08:12:28;101642.88;;;-2.87;100.00
50380;BME280;37474;59.468;18.040;2024-01-27T08:14:56;101641.13;;;-2.92;100.00
50380;BME280;37474;59.468;18.040;2024-01-27T08:17:24;101650.53;;;-2.86;100.00
50380;BME280;37474;59.468;18.040;2024-01-27T08:19:52;101662.56;;;-2.74;100.00
50380;BME280;37474;59.468;18.040;2024-01-27T08:22:21;101657.38;;;-2.82;100.00
50380;BME280;37474;59.468;18.040;2024-01-27T08:24:49;101677.75;;;-2.77;100.00
50380;BME280;37474;59.468;18.040;2024-01-27T08:27:17;101685.63;;;-2.62;100.00
50380;BME280;37474;59.468;18.040;2024-01-27T08:29:47;101697.38;;;-2.67;100.00
50380;BME280;37474;59.468;18.040;2024-01-27T08:32:14;101695.84;;;-2.59;100.00
50380;BME280;37474;59.468;18.040;2024-01-27T08:34:45;101706.19;;;-2.48;100.00
50380;BME280;37474;59.468;18.040;2024-01-27T08:37:18;101711.84;;;-2.63;100.00
50380;BME280;37474;59.468;18.040;2024-01-27T08:39:47;101710.41;;;-2.49;100.00
50380;BME280;37474;59.468;18.040;2024-01-27T08:42:15;101703.69;;;-2.47;100.00
50380;BME280;37474;59.468;18.040;2024-01-27T08:44:43;101729.25;;;-2.37;100.00
50380;BME280;37474;59.468;18.040;2024-01-27T08:47:12;101718.50;;;-2.21;100.00
50380;BME280;37474;59.468;18.040;2024-01-27T08:49:40;101721.75;;;-2.30;100.00
50380;BME280;37474;59.468;18.040;2024-01-27T08:52:08;101743.09;;;-2.19;100.00
50380;BME280;37474;59.468;18.040;2024-01-27T08:54:38;101728.81;;;-2.12;100.00
50380;BME280;37474;59.468;18.040;2024-01-27T08:57:07;101737.41;;;-2.05;100.00
50380;BME280;37474;59.468;18.040;2024-01-27T08:59:36;101746.63;;;-2.10;100.00
50380;BME280;37474;59.468;18.040;2024-01-27T09:02:04;101753.44;;;-2.08;100.00
50380;BME280;37474;59.468;18.040;2024-01-27T09:04:34;101758.41;;;-2.16;100.00
50380;BME280;37474;59.468;18.040;2024-01-27T09:07:02;101758.47;;;-2.11;100.00
50380;BME280;37474;59.468;18.040;2024-01-27T09:09:30;101735.41;;;-2.23;100.00
50380;BME280;37474;59.468;18.040;2024-01-27T09:11:58;101763.59;;;-2.09;100.00
50380;BME280;37474;59.468;18.040;2024-01-27T09:14:27;101767.16;;;-1.98;100.00
50380;BME280;37474;59.468;18.040;2024-01-27T09:16:55;101758.88;;;-1.87;100.00
50380;BME280;37474;59.468;18.040;2024-01-27T09:19:23;101769.16;;;-1.79;100.00
50380;BME280;37474;59.468;18.040;2024-01-27T09:21:53;101763.31;;;-1.73;100.00
50380;BME280;37474;59.468;18.040;2024-01-27T09:24:21;101751.09;;;-1.96;100.00
50380;BME280;37474;59.468;18.040;2024-01-27T09:26:49;101762.94;;;-1.98;100.00
50380;BME280;37474;59.468;18.040;2024-01-27T09:29:18;101765.72;;;-1.82;100.00
50380;BME280;37474;59.468;18.040;2024-01-27T09:31:47;101770.75;;;-1.87;100.00
50380;BME280;37474;59.468;18.040;2024-01-27T09:34:15;101761.44;;;-1.83;100.00
50380;BME280;37474;59.468;18.040;2024-01-27T09:36:45;101758.03;;;-1.86;100.00
50380;BME280;37474;59.468;18.040;2024-01-27T09:39:15;101776.94;;;-1.71;100.00
50380;BME280;37474;59.468;18.040;2024-01-27T09:41:44;101771.78;;;-1.74;100.00
50380;BME280;37474;59.468;18.040;2024-01-27T09:44:14;101776.75;;;-1.82;100.00
50380;BME280;37474;59.468;18.040;2024-01-27T09:46:46;101768.28;;;-1.82;100.00
50380;BME280;37474;59.468;18.040;2024-01-27T09:49:14;101781.25;;;-1.66;100.00
50380;BME280;37474;59.468;18.040;2024-01-27T09:51:42;101786.25;;;-1.70;100.00
50380;BME280;37474;59.468;18.040;2024-01-27T09:54:11;101770.94;;;-1.73;100.00
50380;BME280;37474;59.468;18.040;2024-01-27T09:56:43;101771.84;;;-1.70;100.00
50380;BME280;37474;59.468;18.040;2024-01-27T09:59:14;101760.84;;;-1.69;100.00
50380;BME280;37474;59.468;18.040;2024-01-27T10:01:45;101765.25;;;-1.57;100.00
50380;BME280;37474;59.468;18.040;2024-01-27T10:04:13;101770.44;;;-1.51;100.00
50380;BME280;37474;59.468;18.040;2024-01-27T10:06:42;101781.59;;;-1.43;100.00
50380;BME280;37474;59.468;18.040;2024-01-27T10:09:10;101780.66;;;-1.48;100.00
50380;BME280;37474;59.468;18.040;2024-01-27T10:11:39;101777.28;;;-1.47;100.00
50380;BME280;37474;59.468;18.040;2024-01-27T10:14:15;101774.72;;;-1.50;100.00
50380;BME280;37474;59.468;18.040;2024-01-27T10:16:44;101763.56;;;-1.56;100.00
50380;BME280;37474;59.468;18.040;2024-01-27T10:19:15;101777.19;;;-1.54;100.00
50380;BME280;37474;59.468;18.040;2024-01-27T10:21:45;101774.13;;;-1.32;100.00
50380;BME280;37474;59.468;18.040;2024-01-27T10:24:13;101794.63;;;-1.21;100.00
50380;BME280;37474;59.468;18.040;2024-01-27T10:26:42;101787.00;;;-1.20;100.00
50380;BME280;37474;59.468;18.040;2024-01-27T10:29:11;101778.50;;;-1.22;100.00
50380;BME280;37474;59.468;18.040;2024-01-27T10:31:39;101778.44;;;-1.26;100.00
50380;BME280;37474;59.468;18.040;2024-01-27T10:34:08;101787.84;;;-1.19;100.00
50380;BME280;37474;59.468;18.040;2024-01-27T10:36:42;101787.00;;;-1.20;100.00
50380;BME280;37474;59.468;18.040;2024-01-27T10:39:20;101793.72;;;-1.25;100.00
50380;BME280;37474;59.468;18.040;2024-01-27T10:41:50;101808.13;;;-1.24;100.00
50380;BME280;37474;59.468;18.040;2024-01-27T10:44:20;101809.75;;;-1.29;100.00
50380;BME280;37474;59.468;18.040;2024-01-27T10:46:49;101805.59;;;-1.24;100.00
50380;BME280;37474;59.468;18.040;2024-01-27T10:49:22;101803.19;;;-1.13;100.00
50380;BME280;37474;59.468;18.040;2024-01-27T10:51:54;101807.44;;;-1.14;100.00
50380;BME280;37474;59.468;18.040;2024-01-27T10:54:24;101796.53;;;-1.05;100.00
50380;BME280;37474;59.468;18.040;2024-01-27T10:56:53;101810.97;;;-1.04;100.00
50380;BME280;37474;59.468;18.040;2024-01-27T10:59:26;101800.72;;;-1.09;100.00
50380;BME280;37474;59.468;18.040;2024-01-27T11:01:54;101797.25;;;-1.15;100.00
50380;BME280;37474;59.468;18.040;2024-01-27T11:04:24;101810.06;;;-1.08;100.00
50380;BME280;37474;59.468;18.040;2024-01-27T11:06:53;101811.88;;;-0.99;100.00
50380;BME280;37474;59.468;18.040;2024-01-27T11:09:22;101834.09;;;-0.87;100.00
50380;BME280;37474;59.468;18.040;2024-01-27T11:11:50;101849.06;;;-1.10;100.00
50380;BME280;37474;59.468;18.040;2024-01-27T11:14:19;101856.63;;;-1.15;100.00
50380;BME280;37474;59.468;18.040;2024-01-27T11:16:54;101860.03;;;-1.11;100.00
50380;BME280;37474;59.468;18.040;2024-01-27T11:19:23;101863.31;;;-1.21;100.00
50380;BME280;37474;59.468;18.040;2024-01-27T11:22:00;101855.72;;;-1.18;100.00
50380;BME280;37474;59.468;18.040;2024-01-27T11:24:29;101861.69;;;-1.16;100.00
50380;BME280;37474;59.468;18.040;2024-01-27T11:27:01;101855.78;;;-1.12;100.00
50380;BME280;37474;59.468;18.040;2024-01-27T11:29:29;101867.75;;;-1.08;100.00
50380;BME280;37474;59.468;18.040;2024-01-27T11:32:02;101859.28;;;-1.07;100.00
50380;BME280;37474;59.468;18.040;2024-01-27T11:34:41;101855.06;;;-1.05;100.00
50380;BME280;37474;59.468;18.040;2024-01-27T11:37:13;101865.28;;;-1.03;100.00
50380;BME280;37474;59.468;18.040;2024-01-27T11:39:42;101871.28;;;-0.98;100.00
50380;BME280;37474;59.468;18.040;2024-01-27T11:42:11;101872.31;;;-0.86;100.00
50380;BME280;37474;59.468;18.040;2024-01-27T11:44:40;101864.72;;;-0.83;100.00
50380;BME280;37474;59.468;18.040;2024-01-27T11:47:15;101882.38;;;-0.93;100.00
50380;BME280;37474;59.468;18.040;2024-01-27T11:49:50;101885.81;;;-0.90;100.00
50380;BME280;37474;59.468;18.040;2024-01-27T11:52:20;101864.38;;;-1.06;100.00
50380;BME280;37474;59.468;18.040;2024-01-27T11:54:54;101888.31;;;-0.94;100.00
50380;BME280;37474;59.468;18.040;2024-01-27T11:57:22;101877.44;;;-0.83;100.00
50380;BME280;37474;59.468;18.040;2024-01-27T11:59:50;101888.47;;;-0.82;100.00
50380;BME280;37474;59.468;18.040;2024-01-27T12:02:20;101890.06;;;-0.90;100.00
50380;BME280;37474;59.468;18.040;2024-01-27T12:04:48;101891.81;;;-0.88;100.00
50380;BME280;37474;59.468;18.040;2024-01-27T12:07:16;101890.19;;;-0.83;100.00
50380;BME280;37474;59.468;18.040;2024-01-27T12:09:48;101885.13;;;-0.80;100.00
50380;BME280;37474;59.468;18.040;2024-01-27T12:12:16;101883.34;;;-0.85;100.00
50380;BME280;37474;59.468;18.040;2024-01-27T12:14:46;101894.69;;;-0.62;100.00
50380;BME280;37474;59.468;18.040;2024-01-27T12:48:28;101913.00;;;0.57;100.00
50380;BME280;37474;59.468;18.040;2024-01-27T12:50:57;101916.09;;;1.34;100.00
50380;BME280;37474;59.468;18.040;2024-01-27T12:53:25;101907.94;;;2.51;100.00
50380;BME280;37474;59.468;18.040;2024-01-27T12:55:53;101906.00;;;3.66;100.00
50380;BME280;37474;59.468;18.040;2024-01-27T12:58:21;101901.44;;;4.23;98.10
50380;BME280;37474;59.468;18.040;2024-01-27T13:00:50;101908.72;;;4.76;90.70
50380;BME280;37474;59.468;18.040;2024-01-27T13:03:18;101904.72;;;4.43;89.67
50380;BME280;37474;59.468;18.040;2024-01-27T13:05:47;101905.84;;;4.03;91.19
50380;BME280;37474;59.468;18.040;2024-01-27T13:08:15;101899.22;;;3.53;94.04
50380;BME280;37474;59.468;18.040;2024-01-27T13:10:43;101902.78;;;2.97;97.44